Time;durP1;ratioP1;P1;durP2;ratioP2;P2;SDS_P1;SDS_P2;PMS_P1;PMS_P2;Temp;Humidity;BMP_temperature;BMP_pressure;BME280_temperature;BME280_humidity;BME280_pressure;Samples;Min_cycle;Max_cycle;Signal;HPM_P1;HPM_P2
2022/10/19 00:00:25;;;;;;;;;;;;;;;16.65;66.85;102652.63;1237943;23;725;-73
2022/10/19 00:01:15;;;;;;;;;;;;;;;16.63;66.76;102646.47;1237858;23;639;-72
2022/10/19 00:02:05;;;;;;;;;;;;;;;16.63;67.25;102651.84;1243281;23;661;-72
2022/10/19 00:02:56;;;;;;;;;;;;;;;16.63;66.53;102643.78;1244113;23;723;-72
2022/10/19 00:03:47;;;;;;;;;;;;;;;16.62;67.31;102650.09;1238220;23;654;-73
2022/10/19 00:04:37;;;;;;;;;;;;;;;16.64;66.54;102645.50;1243174;23;615;-72
2022/10/19 00:05:28;;;;;;;;;;;;;;;16.62;66.94;102650.09;1242571;23;638;-73
2022/10/19 00:06:18;;;;;;;;;;;;;;;16.62;67.00;102650.94;1238340;23;673;-73
2022/10/19 00:07:09;;;;;;;;;;;;;;;16.61;67.23;102640.28;1231690;24;650;-73
2022/10/19 00:08:00;;;;;;;;;;;;;;;16.62;66.87;102653.66;1238213;23;607;-73
2022/10/19 00:08:51;;;;;;;;;;;;;;;16.62;67.02;102645.56;1237771;23;682;-73
2022/10/19 00:09:41;;;;;;;;;;;;;;;16.61;67.31;102648.34;1243162;23;650;-73
2022/10/19 00:10:32;;;;;;;;;;;;;;;16.60;66.59;102649.31;1243247;23;816;-73
2022/10/19 00:11:22;;;;;;;;;;;;;;;16.61;66.94;102653.75;1237244;24;651;-73
2022/10/19 00:12:13;;;;;;;;;;;;;;;16.60;66.68;102649.31;1237764;24;760;-73
2022/10/19 00:13:03;;;;;;;;;;;;;;;16.63;66.87;102643.78;1237733;24;641;-73
2022/10/19 00:13:54;;;;;;;;;;;;;;;16.61;67.28;102645.66;1237776;24;639;-73
2022/10/19 00:14:44;;;;;;;;;;;;;;;16.62;66.76;102644.69;1237715;24;627;-73
2022/10/19 00:15:35;;;;;;;;;;;;;;;16.60;67.05;102644.78;1237811;24;687;-73
2022/10/19 00:16:25;;;;;;;;;;;;;;;16.61;66.61;102642.97;1237714;24;619;-73
2022/10/19 00:17:15;;;;;;;;;;;;;;;16.60;67.14;102644.78;1237670;24;616;-73
2022/10/19 00:18:06;;;;;;;;;;;;;;;16.60;66.68;102631.34;1237155;24;749;-73
2022/10/19 00:18:56;;;;;;;;;;;;;;;16.61;67.06;102640.28;1243034;23;658;-73
2022/10/19 00:19:47;;;;;;;;;;;;;;;16.60;67.18;102634.03;1242505;23;623;-73
2022/10/19 00:20:37;;;;;;;;;;;;;;;16.59;66.71;102631.44;1236929;24;611;-72
2022/10/19 00:21:27;;;;;;;;;;;;;;;16.59;66.43;102636.81;1237702;24;653;-72
2022/10/19 00:22:18;;;;;;;;;;;;;;;16.58;67.01;102632.38;1237786;24;677;-71
2022/10/19 00:23:08;;;;;;;;;;;;;;;16.58;67.08;102635.06;1237677;24;631;-72
2022/10/19 00:23:59;;;;;;;;;;;;;;;16.58;66.41;102629.69;1237073;24;698;-73
2022/10/19 00:24:49;;;;;;;;;;;;;;;16.57;66.97;102633.34;1237654;24;650;-72
2022/10/19 00:25:40;;;;;;;;;;;;;;;16.57;66.52;102627.97;1238481;23;1886;-73
2022/10/19 00:26:30;;;;;;;;;;;;;;;16.58;66.99;102635.06;1237725;24;753;-72
2022/10/19 00:27:20;;;;;;;;;;;;;;;16.58;66.94;102633.25;1237624;24;623;-72
2022/10/19 00:28:11;;;;;;;;;;;;;;;16.57;66.88;102631.53;1237788;24;651;-72
2022/10/19 00:29:01;;;;;;;;;;;;;;;16.57;66.41;102636.03;1237709;23;642;-73
2022/10/19 00:29:52;;;;;;;;;;;;;;;16.56;66.89;102637.88;1237825;24;973;-72
2022/10/19 00:30:42;;;;;;;;;;;;;;;16.54;66.98;102634.41;1237716;24;627;-72
2022/10/19 00:31:32;;;;;;;;;;;;;;;16.55;67.01;102630.75;1237669;24;595;-72
2022/10/19 00:32:23;;;;;;;;;;;;;;;16.55;66.73;102627.19;1237755;24;690;-72
2022/10/19 00:33:19;;;;;;;;;;;;;;;16.55;66.71;102633.44;1237616;24;635;-72
2022/10/19 00:34:10;;;;;;;;;;;;;;;16.55;67.02;102630.75;1237073;24;678;-72
2022/10/19 00:35:02;;;;;;;;;;;;;;;16.54;67.29;102629.00;1226251;24;728;-72
2022/10/19 00:35:52;;;;;;;;;;;;;;;16.53;66.98;102627.28;1225560;24;611;-72
2022/10/19 00:36:43;;;;;;;;;;;;;;;16.54;66.52;102629.00;1225721;24;627;-72
2022/10/19 00:37:33;;;;;;;;;;;;;;;16.54;66.43;102630.84;1225555;24;621;-72
2022/10/19 00:38:24;;;;;;;;;;;;;;;16.53;66.51;102634.50;1226496;24;729;-73
2022/10/19 00:39:14;;;;;;;;;;;;;;;16.51;67.12;102620.25;1225376;24;654;-73
2022/10/19 00:40:05;;;;;;;;;;;;;;;16.52;66.70;102628.25;1225268;24;695;-73
2022/10/19 00:40:55;;;;;;;;;;;;;;;16.53;66.98;102626.41;1225823;24;627;-73
2022/10/19 00:41:45;;;;;;;;;;;;;;;16.52;66.33;102630.06;1225155;24;671;-72
2022/10/19 00:42:36;;;;;;;;;;;;;;;16.51;66.43;102629.19;1221195;24;702;-73
2022/10/19 00:43:26;;;;;;;;;;;;;;;16.52;66.67;102630.06;1225905;24;650;-73
2022/10/19 00:44:17;;;;;;;;;;;;;;;16.54;66.52;102631.69;1226234;24;686;-73
2022/10/19 00:45:07;;;;;;;;;;;;;;;16.53;66.38;102629.09;1225492;24;607;-73
2022/10/19 00:45:58;;;;;;;;;;;;;;;16.51;66.88;102631.03;1225600;24;1897;-73
2022/10/19 00:46:48;;;;;;;;;;;;;;;16.53;66.74;102629.09;1225431;24;639;-73
2022/10/19 00:47:38;;;;;;;;;;;;;;;16.51;66.46;102629.19;1226225;24;630;-73
2022/10/19 00:48:29;;;;;;;;;;;;;;;16.50;66.24;102637.38;1225513;24;717;-73
2022/10/19 00:49:19;;;;;;;;;;;;;;;16.48;66.43;102631.22;1225475;24;709;-73
2022/10/19 00:50:10;;;;;;;;;;;;;;;16.49;66.40;102636.50;1225619;24;643;-73
2022/10/19 00:51:00;;;;;;;;;;;;;;;16.51;66.65;102629.19;1225520;24;674;-72
2022/10/19 00:51:51;;;;;;;;;;;;;;;16.49;65.93;102624.88;1225610;24;651;-73
2022/10/19 00:52:41;;;;;;;;;;;;;;;16.50;66.55;102634.66;1225075;24;652;-73
2022/10/19 00:53:32;;;;;;;;;;;;;;;16.51;66.51;102628.31;1225928;24;862;-73
2022/10/19 00:54:22;;;;;;;;;;;;;;;16.51;66.14;102625.63;1226248;24;654;-73
2022/10/19 00:55:12;;;;;;;;;;;;;;;16.49;66.43;102631.13;1225587;24;658;-73
2022/10/19 00:56:03;;;;;;;;;;;;;;;16.49;66.72;102633.81;1225669;24;619;-72
2022/10/19 00:56:53;;;;;;;;;;;;;;;16.49;66.24;102635.63;1225112;24;651;-73
2022/10/19 00:57:44;;;;;;;;;;;;;;;16.48;66.22;102629.38;1225966;24;700;-73
2022/10/19 00:58:34;;;;;;;;;;;;;;;16.48;66.31;102626.69;1226164;24;643;-73
2022/10/19 00:59:25;;;;;;;;;;;;;;;16.47;66.23;102625.00;1225564;24;658;-73
2022/10/19 01:00:15;;;;;;;;;;;;;;;16.44;66.41;102627.84;1225463;24;649;-73
2022/10/19 01:01:05;;;;;;;;;;;;;;;16.47;66.66;102624.13;1225745;24;623;-73
2022/10/19 01:01:56;;;;;;;;;;;;;;;16.49;66.64;102633.81;1224771;24;537;-73
2022/10/19 01:02:46;;;;;;;;;;;;;;;16.48;66.73;102628.53;1224680;24;1124;-73
2022/10/19 01:03:37;;;;;;;;;;;;;;;16.45;66.26;102628.72;1225649;24;670;-73
2022/10/19 01:04:27;;;;;;;;;;;;;;;16.44;66.17;102624.31;1225022;24;619;-73
2022/10/19 01:05:18;;;;;;;;;;;;;;;16.46;66.40;102630.47;1225988;24;698;-73
2022/10/19 01:06:08;;;;;;;;;;;;;;;16.45;66.54;102626.91;1226217;24;663;-73
2022/10/19 01:06:58;;;;;;;;;;;;;;;16.44;66.39;102622.47;1225478;24;625;-72
2022/10/19 01:07:49;;;;;;;;;;;;;;;16.43;66.58;102622.56;1225594;24;759;-73
2022/10/19 01:08:39;;;;;;;;;;;;;;;16.47;66.23;102622.28;1226347;24;632;-73
2022/10/19 01:09:30;;;;;;;;;;;;;;;16.46;66.86;102625.94;1225588;24;635;-73
2022/10/19 01:10:20;;;;;;;;;;;;;;;16.43;66.19;102626.13;1225386;24;615;-73
2022/10/19 01:11:13;;;;;;;;;;;;;;;16.44;66.19;102621.59;1225479;24;827;-73
2022/10/19 01:12:03;;;;;;;;;;;;;;;16.44;66.26;102616.22;1225040;24;643;-73
2022/10/19 01:12:53;;;;;;;;;;;;;;;16.44;66.27;102621.59;1225111;24;647;-73
2022/10/19 01:13:44;;;;;;;;;;;;;;;16.43;66.17;102620.75;1226224;24;695;-72
2022/10/19 01:14:34;;;;;;;;;;;;;;;16.42;66.20;102616.31;1225412;24;655;-73
2022/10/19 01:15:25;;;;;;;;;;;;;;;16.44;66.06;102614.41;1225430;24;623;-73
2022/10/19 01:16:15;;;;;;;;;;;;;;;16.42;66.06;102619.00;1224969;24;627;-72
2022/10/19 01:17:06;;;;;;;;;;;;;;;16.42;66.33;102610.06;1225513;24;682;-73
2022/10/19 01:17:56;;;;;;;;;;;;;;;16.40;66.64;102618.22;1225477;24;612;-73
2022/10/19 01:18:47;;;;;;;;;;;;;;;16.40;66.22;102609.28;1225463;24;678;-73
2022/10/19 01:19:37;;;;;;;;;;;;;;;16.39;66.30;102613.81;1225402;24;698;-73
2022/10/19 01:20:27;;;;;;;;;;;;;;;16.38;66.40;102611.22;1225388;24;666;-73
2022/10/19 01:21:18;;;;;;;;;;;;;;;16.37;66.50;102613.03;1225592;24;675;-73
2022/10/19 01:22:08;;;;;;;;;;;;;;;16.38;66.40;102611.22;1225353;24;639;-73
2022/10/19 01:22:59;;;;;;;;;;;;;;;16.37;66.14;102606.78;1225468;24;693;-73
2022/10/19 01:23:49;;;;;;;;;;;;;;;16.37;66.69;102609.47;1225354;24;648;-73
2022/10/19 01:24:40;;;;;;;;;;;;;;;16.38;66.66;102616.59;1225544;24;701;-73
2022/10/19 01:25:30;;;;;;;;;;;;;;;16.40;65.90;102612.00;1225574;24;666;-73
2022/10/19 01:26:20;;;;;;;;;;;;;;;16.40;66.02;102607.47;1225857;24;638;-73
2022/10/19 01:27:11;;;;;;;;;;;;;;;16.39;66.09;102611.13;1225936;24;634;-73
2022/10/19 01:28:01;;;;;;;;;;;;;;;16.39;66.08;102610.25;1225364;24;659;-73
2022/10/19 01:28:52;;;;;;;;;;;;;;;16.37;66.19;102606.78;1226336;24;749;-73
2022/10/19 01:29:43;;;;;;;;;;;;;;;16.39;65.92;102612.94;1225971;24;691;-73
2022/10/19 01:30:33;;;;;;;;;;;;;;;16.39;66.08;102604.88;1225351;24;627;-72
2022/10/19 01:31:24;;;;;;;;;;;;;;;16.40;65.94;102609.28;1226681;24;705;-73
2022/10/19 01:32:14;;;;;;;;;;;;;;;16.41;65.82;102611.03;1225787;24;631;-73
2022/10/19 01:33:05;;;;;;;;;;;;;;;16.38;66.17;102608.53;1225809;24;631;-73
2022/10/19 01:33:55;;;;;;;;;;;;;;;16.37;65.95;102609.47;1225748;24;670;-73
2022/10/19 01:34:45;;;;;;;;;;;;;;;16.38;66.45;102611.22;1233449;24;1118;-73
2022/10/19 01:35:36;;;;;;;;;;;;;;;16.38;66.20;102611.22;1238099;23;643;-73
2022/10/19 01:36:26;;;;;;;;;;;;;;;16.35;65.94;102612.25;1237965;24;675;-73
2022/10/19 01:37:17;;;;;;;;;;;;;;;16.37;65.89;102615.72;1238037;24;685;-73
2022/10/19 01:38:07;;;;;;;;;;;;;;;16.35;65.97;102606.88;1238002;24;620;-72
2022/10/19 01:38:57;;;;;;;;;;;;;;;16.35;66.46;102612.25;1238004;24;710;-73
2022/10/19 01:39:48;;;;;;;;;;;;;;;16.37;66.00;102614.88;1238014;24;662;-73
2022/10/19 01:40:38;;;;;;;;;;;;;;;16.37;65.77;102602.28;1237959;24;651;-73
2022/10/19 01:41:29;;;;;;;;;;;;;;;16.38;65.69;102605.84;1237957;24;623;-73
2022/10/19 01:42:19;;;;;;;;;;;;;;;16.36;66.32;102607.75;1237999;23;694;-73
2022/10/19 01:43:10;;;;;;;;;;;;;;;16.33;66.00;102596.22;1237962;24;677;-73
2022/10/19 01:44:00;;;;;;;;;;;;;;;16.35;66.08;102606.00;1237884;24;706;-72
2022/10/19 01:44:51;;;;;;;;;;;;;;;16.33;65.75;102598.03;1238193;23;717;-72
2022/10/19 01:45:41;;;;;;;;;;;;;;;16.32;65.87;102609.75;1237875;24;1945;-73
2022/10/19 01:46:32;;;;;;;;;;;;;;;16.30;66.35;102604.47;1237970;24;662;-73
2022/10/19 01:47:22;;;;;;;;;;;;;;;16.31;66.26;102600.81;1238022;24;600;-73
2022/10/19 01:48:13;;;;;;;;;;;;;;;16.31;66.11;102602.63;1238045;23;658;-73
2022/10/19 01:49:03;;;;;;;;;;;;;;;16.32;65.63;102607.94;1238030;24;650;-72
2022/10/19 01:49:53;;;;;;;;;;;;;;;16.31;66.49;102606.19;1238080;24;622;-73
2022/10/19 01:50:44;;;;;;;;;;;;;;;16.30;65.87;102609.84;1237990;23;673;-73
2022/10/19 01:51:34;;;;;;;;;;;;;;;16.30;66.46;102611.69;1238067;23;594;-73
2022/10/19 01:52:25;;;;;;;;;;;;;;;16.29;66.30;102608.13;1238034;23;639;-73
2022/10/19 01:53:15;;;;;;;;;;;;;;;16.28;66.06;102606.41;1243535;23;693;-73
2022/10/19 01:54:06;;;;;;;;;;;;;;;16.28;66.18;102606.41;1242705;23;671;-73
2022/10/19 01:54:56;;;;;;;;;;;;;;;16.29;66.31;102609.97;1237275;24;796;-73
2022/10/19 01:55:46;;;;;;;;;;;;;;;16.28;66.10;102594.78;1238059;24;659;-73
2022/10/19 01:56:37;;;;;;;;;;;;;;;16.28;65.82;102601.03;1238000;24;659;-73
2022/10/19 01:57:27;;;;;;;;;;;;;;;16.29;66.03;102608.13;1238009;24;643;-73
2022/10/19 01:58:18;;;;;;;;;;;;;;;16.29;66.16;102607.28;1237988;24;662;-73
2022/10/19 01:59:08;;;;;;;;;;;;;;;16.28;65.74;102609.09;1243400;23;650;-73
2022/10/19 02:00:06;;;;;;;;;;;;;;;16.28;65.49;102608.22;1242728;23;658;-73
2022/10/19 02:00:56;;;;;;;;;;;;;;;16.30;66.02;102607.16;1238042;23;712;-73
2022/10/19 02:01:46;;;;;;;;;;;;;;;16.29;65.55;102604.59;1243577;23;631;-73
2022/10/19 02:02:37;;;;;;;;;;;;;;;16.28;65.49;102606.41;1242847;23;638;-73
2022/10/19 02:03:27;;;;;;;;;;;;;;;16.25;66.13;102611.97;1237356;24;635;-73
2022/10/19 02:04:18;;;;;;;;;;;;;;;16.28;66.21;102610.91;1237385;24;723;-73
2022/10/19 02:05:08;;;;;;;;;;;;;;;16.28;65.91;102609.09;1238102;23;686;-72
2022/10/19 02:05:59;;;;;;;;;;;;;;;16.27;65.54;102612.75;1237938;24;1927;-73
2022/10/19 02:06:49;;;;;;;;;;;;;;;16.29;65.70;102608.13;1237960;24;640;-73
2022/10/19 02:07:39;;;;;;;;;;;;;;;16.24;65.73;102606.69;1238011;23;622;-73
2022/10/19 02:08:30;;;;;;;;;;;;;;;16.28;65.54;102614.47;1237926;24;682;-73
2022/10/19 02:09:20;;;;;;;;;;;;;;;16.27;65.77;102603.81;1237825;24;623;-73
2022/10/19 02:10:11;;;;;;;;;;;;;;;16.24;66.44;102607.53;1238002;24;663;-73
2022/10/19 02:11:01;;;;;;;;;;;;;;;16.26;65.59;102602.06;1238005;24;628;-73
2022/10/19 02:11:52;;;;;;;;;;;;;;;16.25;66.13;102606.59;1243421;23;670;-73
2022/10/19 02:12:42;;;;;;;;;;;;;;;16.24;65.73;102604.00;1243417;23;765;-73
2022/10/19 02:13:32;;;;;;;;;;;;;;;16.24;65.74;102599.47;1237192;24;659;-72
2022/10/19 02:14:23;;;;;;;;;;;;;;;16.24;66.02;102604.84;1237382;24;654;-72
2022/10/19 02:15:13;;;;;;;;;;;;;;;16.22;65.98;102604.09;1238006;23;654;-73
2022/10/19 02:16:04;;;;;;;;;;;;;;;16.23;65.87;102597.75;1238012;24;675;-72
2022/10/19 02:16:54;;;;;;;;;;;;;;;16.21;65.46;102599.66;1237988;23;736;-72
2022/10/19 02:17:45;;;;;;;;;;;;;;;16.22;66.11;102598.69;1237882;24;640;-72
2022/10/19 02:18:35;;;;;;;;;;;;;;;16.21;65.97;102596.09;1238019;23;713;-72
2022/10/19 02:19:26;;;;;;;;;;;;;;;16.21;65.66;102598.78;1238010;24;678;-72
2022/10/19 02:20:16;;;;;;;;;;;;;;;16.18;65.92;102599.84;1237987;24;639;-72
2022/10/19 02:21:06;;;;;;;;;;;;;;;16.21;66.12;102593.41;1237897;24;636;-72
2022/10/19 02:21:57;;;;;;;;;;;;;;;16.22;66.23;102595.16;1237982;23;663;-72
2022/10/19 02:22:47;;;;;;;;;;;;;;;16.22;66.01;102596.00;1237990;24;659;-72
2022/10/19 02:23:38;;;;;;;;;;;;;;;16.20;66.10;102592.53;1238043;23;729;-72
2022/10/19 02:24:28;;;;;;;;;;;;;;;16.19;65.91;102590.81;1237968;23;645;-73
2022/10/19 02:25:19;;;;;;;;;;;;;;;16.20;65.47;102587.16;1243394;23;638;-72
2022/10/19 02:26:09;;;;;;;;;;;;;;;16.19;66.13;102585.44;1242534;23;639;-72
2022/10/19 02:27:00;;;;;;;;;;;;;;;16.22;65.94;102585.25;1237366;24;623;-73
2022/10/19 02:27:51;;;;;;;;;;;;;;;16.23;65.97;102583.44;1237242;24;871;-73
2022/10/19 02:28:41;;;;;;;;;;;;;;;16.20;66.00;102587.16;1237373;24;623;-73
2022/10/19 02:29:31;;;;;;;;;;;;;;;16.18;65.35;102582.84;1238000;24;788;-72
2022/10/19 02:30:22;;;;;;;;;;;;;;;16.20;65.68;102589.84;1237841;24;745;-73
2022/10/19 02:31:12;;;;;;;;;;;;;;;16.22;65.73;102584.38;1237836;24;638;-73
2022/10/19 02:32:03;;;;;;;;;;;;;;;16.21;65.74;102585.34;1237865;24;697;-72
2022/10/19 02:32:53;;;;;;;;;;;;;;;16.20;66.00;102589.84;1238023;23;717;-72
2022/10/19 02:33:44;;;;;;;;;;;;;;;16.18;65.47;102583.69;1237950;24;615;-72
2022/10/19 02:34:34;;;;;;;;;;;;;;;16.19;66.03;102593.50;1237727;24;1216;-72
2022/10/19 02:35:24;;;;;;;;;;;;;;;16.18;65.76;102591.78;1237842;24;637;-72
2022/10/19 02:36:15;;;;;;;;;;;;;;;16.20;66.07;102589.00;1237987;24;670;-72
2022/10/19 02:37:05;;;;;;;;;;;;;;;16.18;65.84;102589.06;1237955;24;662;-72
2022/10/19 02:37:56;;;;;;;;;;;;;;;16.16;65.72;102582.06;1237909;24;694;-72
2022/10/19 02:38:47;;;;;;;;;;;;;;;16.16;66.01;102580.22;1237275;24;654;-72
2022/10/19 02:39:37;;;;;;;;;;;;;;;16.17;65.35;102579.28;1237879;23;617;-72
2022/10/19 02:40:28;;;;;;;;;;;;;;;16.17;65.57;102579.28;1237960;24;662;-72
2022/10/19 02:41:18;;;;;;;;;;;;;;;16.16;65.60;102580.22;1237857;24;658;-72
2022/10/19 02:42:09;;;;;;;;;;;;;;;16.16;65.73;102580.22;1238037;24;614;-72
2022/10/19 02:42:59;;;;;;;;;;;;;;;16.14;65.58;102582.16;1237281;24;658;-72
2022/10/19 02:43:50;;;;;;;;;;;;;;;16.15;65.72;102577.63;1238068;24;620;-73
2022/10/19 02:44:40;;;;;;;;;;;;;;;16.13;65.38;102580.41;1237891;24;670;-72
2022/10/19 02:45:30;;;;;;;;;;;;;;;16.15;65.51;102588.38;1237955;24;643;-72
2022/10/19 02:46:21;;;;;;;;;;;;;;;16.14;65.28;102581.28;1237892;24;611;-72
2022/10/19 02:47:11;;;;;;;;;;;;;;;16.15;65.57;102583.00;1237921;24;764;-72
2022/10/19 02:48:02;;;;;;;;;;;;;;;16.13;65.79;102580.41;1237932;24;607;-72
2022/10/19 02:48:52;;;;;;;;;;;;;;;16.12;65.81;102578.69;1237878;24;652;-72
2022/10/19 02:49:43;;;;;;;;;;;;;;;16.13;65.63;102576.84;1237889;24;678;-73
2022/10/19 02:50:33;;;;;;;;;;;;;;;16.13;65.55;102577.72;1237888;24;599;-72
2022/10/19 02:51:23;;;;;;;;;;;;;;;16.11;65.77;102579.66;1237857;24;666;-72
2022/10/19 02:52:14;;;;;;;;;;;;;;;16.13;65.14;102575.03;1238018;24;667;-72
2022/10/19 02:53:04;;;;;;;;;;;;;;;16.14;65.84;102575.91;1243447;23;634;-72
2022/10/19 02:53:55;;;;;;;;;;;;;;;16.12;65.58;102578.69;1242619;23;669;-72
2022/10/19 02:54:45;;;;;;;;;;;;;;;16.12;65.79;102573.31;1237103;24;697;-72
2022/10/19 02:55:36;;;;;;;;;;;;;;;16.11;65.49;102570.72;1237910;24;623;-72
2022/10/19 02:56:26;;;;;;;;;;;;;;;16.11;65.29;102576.13;1237925;24;736;-72
2022/10/19 02:57:17;;;;;;;;;;;;;;;16.11;65.80;102573.41;1237917;24;931;-72
2022/10/19 02:58:07;;;;;;;;;;;;;;;16.09;65.49;102570.81;1237876;24;670;-72
2022/10/19 02:58:57;;;;;;;;;;;;;;;16.08;65.32;102570.91;1243266;23;666;-71
2022/10/19 02:59:55;;;;;;;;;;;;;;;16.10;65.86;102574.38;1242663;23;658;-75
2022/10/19 03:00:46;;;;;;;;;;;;;;;16.08;65.71;102579.84;1238217;23;740;-73
2022/10/19 03:01:36;;;;;;;;;;;;;;;16.09;65.08;102570.81;1236631;24;658;-72
2022/10/19 03:02:27;;;;;;;;;;;;;;;16.09;65.42;102578.91;1237248;23;641;-72
2022/10/19 03:03:17;;;;;;;;;;;;;;;16.08;65.45;102578.97;1237550;23;641;-73
2022/10/19 03:04:07;;;;;;;;;;;;;;;16.07;65.00;102575.44;1237946;24;658;-73
2022/10/19 03:04:58;;;;;;;;;;;;;;;16.09;65.42;102578.91;1243446;23;702;-73
2022/10/19 03:05:48;;;;;;;;;;;;;;;16.08;66.26;102582.53;1242375;23;1881;-73
2022/10/19 03:06:42;;;;;;;;;;;;;;;16.09;65.09;102580.72;1237236;24;687;-73
2022/10/19 03:07:32;;;;;;;;;;;;;;;16.10;65.69;102577.06;1237782;24;639;-73
2022/10/19 03:08:23;;;;;;;;;;;;;;;16.08;65.73;102576.28;1237933;24;681;-73
2022/10/19 03:09:13;;;;;;;;;;;;;;;16.08;65.32;102571.78;1237834;24;678;-73
2022/10/19 03:10:03;;;;;;;;;;;;;;;16.09;65.35;102573.50;1243325;23;644;-73
2022/10/19 03:10:54;;;;;;;;;;;;;;;16.07;65.30;102572.75;1242636;23;666;-73
2022/10/19 03:11:44;;;;;;;;;;;;;;;16.09;65.25;102572.66;1237242;24;619;-73
2022/10/19 03:12:35;;;;;;;;;;;;;;;16.09;65.65;102570.81;1237850;23;627;-73
2022/10/19 03:13:25;;;;;;;;;;;;;;;16.08;64.96;102571.78;1237895;24;729;-73
2022/10/19 03:14:16;;;;;;;;;;;;;;;16.07;65.37;102572.75;1237876;24;604;-73
2022/10/19 03:15:06;;;;;;;;;;;;;;;16.05;65.52;102561.19;1237867;24;623;-73
2022/10/19 03:15:56;;;;;;;;;;;;;;;16.06;65.00;102565.63;1237821;23;784;-73
2022/10/19 03:16:47;;;;;;;;;;;;;;;16.03;65.41;102565.81;1237966;24;678;-72
2022/10/19 03:17:37;;;;;;;;;;;;;;;16.03;65.38;102571.19;1237893;24;678;-73
2022/10/19 03:18:28;;;;;;;;;;;;;;;16.04;65.60;102564.84;1237783;24;734;-73
2022/10/19 03:19:18;;;;;;;;;;;;;;;16.05;65.65;102568.41;1237837;24;717;-73
2022/10/19 03:20:09;;;;;;;;;;;;;;;16.05;65.45;102563.88;1237999;24;596;-73
2022/10/19 03:20:59;;;;;;;;;;;;;;;16.04;65.25;102558.59;1237911;24;670;-73
2022/10/19 03:21:49;;;;;;;;;;;;;;;16.03;65.34;102571.19;1243329;23;688;-73
2022/10/19 03:22:40;;;;;;;;;;;;;;;16.05;65.67;102571.97;1242610;23;666;-73
2022/10/19 03:23:30;;;;;;;;;;;;;;;16.02;65.54;102566.75;1237186;24;627;-73
2022/10/19 03:24:21;;;;;;;;;;;;;;;16.01;65.81;102569.53;1237899;24;654;-73
2022/10/19 03:25:11;;;;;;;;;;;;;;;16.00;65.24;102563.28;1237890;23;662;-73
2022/10/19 03:26:02;;;;;;;;;;;;;;;16.04;65.29;102566.66;1237013;24;1932;-73
2022/10/19 03:26:52;;;;;;;;;;;;;;;16.02;65.44;102561.38;1237347;24;635;-73
2022/10/19 03:27:43;;;;;;;;;;;;;;;16.03;65.35;102562.25;1237852;24;635;-73
2022/10/19 03:28:33;;;;;;;;;;;;;;;16.00;65.37;102565.97;1237840;24;667;-73
2022/10/19 03:29:23;;;;;;;;;;;;;;;16.01;65.49;102565.03;1237793;24;659;-73
2022/10/19 03:30:14;;;;;;;;;;;;;;;15.98;65.05;102554.44;1243409;23;712;-73
2022/10/19 03:31:04;;;;;;;;;;;;;;;15.98;65.02;102566.06;1238319;23;607;-73
2022/10/19 03:31:55;;;;;;;;;;;;;;;16.01;65.54;102562.34;1237582;24;678;-73
2022/10/19 03:32:45;;;;;;;;;;;;;;;15.99;65.23;102561.56;1237067;24;655;-72
2022/10/19 03:33:36;;;;;;;;;;;;;;;16.00;65.68;102563.28;1237869;24;682;-73
2022/10/19 03:34:26;;;;;;;;;;;;;;;15.99;65.63;102561.56;1243192;23;1129;-73
2022/10/19 03:35:16;;;;;;;;;;;;;;;15.98;65.05;102565.22;1242401;23;687;-73
2022/10/19 03:36:07;;;;;;;;;;;;;;;15.98;64.82;102554.44;1237152;24;670;-73
2022/10/19 03:36:58;;;;;;;;;;;;;;;16.00;65.23;102559.75;1237811;24;697;-73
2022/10/19 03:37:48;;;;;;;;;;;;;;;15.97;65.16;102553.59;1237259;24;670;-73
2022/10/19 03:38:38;;;;;;;;;;;;;;;15.97;65.70;102553.59;1237889;24;607;-73
2022/10/19 03:39:29;;;;;;;;;;;;;;;15.97;65.04;102552.72;1243413;23;678;-73
2022/10/19 03:40:19;;;;;;;;;;;;;;;15.97;65.49;102552.72;1243269;23;638;-72
2022/10/19 03:41:10;;;;;;;;;;;;;;;16.00;65.53;102557.91;1236533;24;643;-73
2022/10/19 03:42:00;;;;;;;;;;;;;;;15.98;65.44;102552.63;1237889;24;670;-72
2022/10/19 03:42:51;;;;;;;;;;;;;;;15.97;65.43;102552.72;1243234;23;630;-72
2022/10/19 03:43:41;;;;;;;;;;;;;;;15.96;65.19;102559.06;1238232;23;694;-72
2022/10/19 03:44:31;;;;;;;;;;;;;;;15.96;64.84;102551.00;1237471;24;638;-72
2022/10/19 03:45:22;;;;;;;;;;;;;;;15.96;65.26;102556.38;1237018;24;650;-72
2022/10/19 03:46:12;;;;;;;;;;;;;;;15.96;65.05;102559.06;1237853;24;631;-72
2022/10/19 03:47:03;;;;;;;;;;;;;;;15.95;65.48;102554.63;1237820;24;650;-72
2022/10/19 03:47:53;;;;;;;;;;;;;;;15.95;65.40;102555.50;1237771;24;683;-72
2022/10/19 03:48:44;;;;;;;;;;;;;;;15.95;65.13;102546.56;1237763;24;634;-72
2022/10/19 03:49:34;;;;;;;;;;;;;;;15.96;64.70;102551.00;1237666;24;667;-72
2022/10/19 03:50:25;;;;;;;;;;;;;;;15.94;65.41;102552.94;1237849;24;658;-72
2022/10/19 03:51:15;;;;;;;;;;;;;;;15.97;64.98;102555.41;1237751;24;650;-71
2022/10/19 03:52:05;;;;;;;;;;;;;;;15.95;65.57;102550.13;1237848;24;627;-72
2022/10/19 03:52:56;;;;;;;;;;;;;;;15.96;65.30;102553.69;1237794;24;647;-72
2022/10/19 03:53:46;;;;;;;;;;;;;;;15.96;64.47;102551.00;1237791;24;646;-72
2022/10/19 03:54:37;;;;;;;;;;;;;;;15.94;65.26;102553.75;1237701;24;678;-72
2022/10/19 03:55:27;;;;;;;;;;;;;;;15.96;65.46;102549.16;1237900;24;969;-72
2022/10/19 03:56:18;;;;;;;;;;;;;;;15.95;65.08;102549.25;1237762;24;662;-72
2022/10/19 03:57:08;;;;;;;;;;;;;;;15.91;65.17;102551.28;1237885;24;611;-72
2022/10/19 03:57:58;;;;;;;;;;;;;;;15.92;64.64;102550.34;1237692;24;639;-72
2022/10/19 03:58:49;;;;;;;;;;;;;;;15.92;65.21;102542.25;1237732;24;659;-71
2022/10/19 03:59:39;;;;;;;;;;;;;;;15.92;65.14;102550.34;1237783;24;620;-72
2022/10/19 04:00:30;;;;;;;;;;;;;;;15.94;65.15;102548.38;1237853;24;612;-72
2022/10/19 04:01:20;;;;;;;;;;;;;;;15.93;65.12;102557.44;1243325;23;686;-72
2022/10/19 04:02:11;;;;;;;;;;;;;;;15.94;65.05;102555.63;1242356;23;681;-72
2022/10/19 04:03:01;;;;;;;;;;;;;;;15.94;65.23;102547.56;1237206;24;674;-72
2022/10/19 04:03:51;;;;;;;;;;;;;;;15.92;64.63;102550.34;1237767;24;655;-72
2022/10/19 04:04:42;;;;;;;;;;;;;;;15.95;64.71;102550.13;1237793;24;627;-71
2022/10/19 04:05:32;;;;;;;;;;;;;;;15.92;64.63;102552.16;1237838;24;658;-72
2022/10/19 04:06:23;;;;;;;;;;;;;;;15.92;64.95;102547.66;1237780;24;635;-71
2022/10/19 04:07:13;;;;;;;;;;;;;;;15.92;64.64;102546.78;1237889;24;663;-71
2022/10/19 04:08:03;;;;;;;;;;;;;;;15.92;64.60;102546.78;1237690;24;647;-72
2022/10/19 04:08:54;;;;;;;;;;;;;;;15.92;65.50;102553.03;1237716;24;662;-72
2022/10/19 04:09:44;;;;;;;;;;;;;;;15.89;65.38;102549.66;1237710;24;603;-72
2022/10/19 04:10:35;;;;;;;;;;;;;;;15.90;65.35;102551.38;1237752;24;662;-72
2022/10/19 04:11:25;;;;;;;;;;;;;;;15.91;64.50;102545.03;1243314;23;659;-72
2022/10/19 04:12:16;;;;;;;;;;;;;;;15.89;65.31;102546.97;1242399;23;658;-72
2022/10/19 04:13:06;;;;;;;;;;;;;;;15.90;65.46;102551.38;1237325;24;659;-72
2022/10/19 04:13:56;;;;;;;;;;;;;;;15.90;64.58;102549.56;1237671;24;623;-71
2022/10/19 04:14:47;;;;;;;;;;;;;;;15.89;64.61;102549.66;1243155;23;717;-73
2022/10/19 04:15:37;;;;;;;;;;;;;;;15.89;64.81;102546.97;1242360;23;670;-73
2022/10/19 04:16:28;;;;;;;;;;;;;;;15.88;64.55;102547.91;1236967;24;631;-73
2022/10/19 04:17:18;;;;;;;;;;;;;;;15.89;64.45;102546.97;1237713;24;635;-71
2022/10/19 04:18:09;;;;;;;;;;;;;;;15.90;64.76;102548.69;1237775;24;651;-73
2022/10/19 04:18:59;;;;;;;;;;;;;;;15.92;64.65;102539.56;1237839;24;713;-73
2022/10/19 04:19:49;;;;;;;;;;;;;;;15.90;64.08;102540.63;1237731;24;603;-73
2022/10/19 04:20:41;;;;;;;;;;;;;;;15.88;64.55;102546.09;1237801;24;818;-71
2022/10/19 04:21:32;;;;;;;;;;;;;;;15.88;64.79;102547.91;1243258;23;976;-72
2022/10/19 04:22:22;;;;;;;;;;;;;;;15.85;64.82;102543.59;1242367;23;674;-72
2022/10/19 04:23:12;;;;;;;;;;;;;;;15.85;65.13;102545.41;1237033;24;627;-73
2022/10/19 04:24:03;;;;;;;;;;;;;;;15.86;64.52;102549.81;1237614;24;702;-72
2022/10/19 04:24:53;;;;;;;;;;;;;;;15.85;64.35;102546.28;1237113;24;681;-72
2022/10/19 04:25:44;;;;;;;;;;;;;;;15.86;64.83;102544.44;1237564;24;1934;-72
2022/10/19 04:26:34;;;;;;;;;;;;;;;15.86;64.75;102545.31;1243243;23;657;-73